Montgomery, AL

2:13 AM CDT on October 24, 2014 (GMT -0500)
Troy Municipal | Change Station
CLOSE
Current Station
Airport
Location: Troy,
Elevation: 397 ft
Nearby Weather Stations

Elev 397 ft 31.86 °N, 86.01 °W | Updated 20 minutes ago

Partly Cloudy
Partly Cloudy
48 °F
Feels Like 48 °F
N
0
Wind Variable Wind from North

Today
High -- | Low -- °F
--% Chance of Precip.
Yesterday
High -- | Low -- °F
Precip. -- in
6:55 AM 6:02 PM
New Moon, 0% visible
Pressure 30.05 in
Visibility 10.0 miles
Clouds Clear
Dew Point 46 °F
Humidity 93%
Rainfall 0.00 in
Snow Depth Not available.
UV 0 out of 12
Pollen 1.90 out of 12
Air Quality Not available.
Flu Activity Sporadic
METAR KTOI 240653Z AUTO 00000KT 10SM CLR 09/08 A3006 RMK AO2 SLP174 T00890078

More Conditions Fewer Conditions

Pressure 30.05 in
Visibility 10.0 miles
Clouds Clear
Dew Point 46 °F
Humidity 93%
Rainfall 0.00 in
Snow Depth Not available.
UV 0 out of 12
Pollen 1.90 out of 12
Air Quality Not available.
Flu Activity Sporadic
METAR KTOI 240653Z AUTO 00000KT 10SM CLR 09/08 A3006 RMK AO2 SLP174 T00890078

More Conditions Fewer Conditions

10-Day Weather Forecast

Almanac

Astronomy

Oct. 24, 2014 Rise Set
Actual Time 6:55 AM CDT 6:02 PM CDT
Civil Twilight 6:30 AM CDT 6:27 PM CDT
Nautical Twilight 6:02 AM CDT 6:56 PM CDT
Astronomical Twilight 5:33 AM CDT 7:24 PM CDT
Moon 7:32 AM CDT 6:44 PM CDT
Length of Visible Light 11h 56m
Length of Day
11h 06m
Tomorrow will be 1m 50s shorter.
New Moon, 0% of the Moon is Illuminated
Today
New Moon
Oct 30
First Quarter
Nov 6
Full
Nov 14
Last Quarter
Nov 22
New

Today's Extremes

State Highs State Lows

Community

WunderPhotos

Upload Photos

1,764,510 photos uploaded!

WunderBlogs® & News

Nearby

Snow Depth

Station Depth Elevation
No new snow has been reported.

Earthquake Activity

City Distance Mag. Time & Date
No recent earthquake activity has been reported nearby.
Minimum magnitude displayed is 2.5.

Coastal Water Temperatures

Place Temperature
No Stations Reporting

Nearby Weather Stations